Aviation Digital Data Service (ADDS)

Output produced by METARs form (0559 UTC 24 May 2017)
found at http://aviationweather.gov/adds/metars/
 
KISP 240542Z 2406/2506 VRB03KT P6SM BKN140 
     FM240800 06005KT 6SM -RA BKN030 OVC070 
     FM241100 04011G18KT 6SM -RA BKN020 OVC050 
     FM241600 02011KT P6SM BKN030 OVC050 
     FM241900 07007KT P6SM SCT035 OVC050 
     FM250300 08008KT P6SM BKN020 OVC040